Time;durP1;ratioP1;P1;durP2;ratioP2;P2;SDS_P1;SDS_P2;PMS_P1;PMS_P2;Temp;Humidity;BMP_temperature;BMP_pressure;BME280_temperature;BME280_humidity;BME280_pressure;Samples;Min_cycle;Max_cycle;Signal;HPM_P1;HPM_P2
2022/02/02 00:03:53;;;;;;;171.23;136.43;;;18.80;45.30;;;;;;4806622;55;21587;-36
2022/02/02 00:09:02;;;;;;;175.62;140.43;;;18.80;45.30;;;;;;4757364;55;21511;-38
2022/02/02 00:22:38;;;;;;;166.23;134.30;;;18.80;45.20;;;;;;4737627;59;21547;-35
2022/02/02 00:27:41;;;;;;;155.98;126.38;;;18.80;45.20;;;;;;4792038;55;21546;-33
2022/02/02 00:32:59;;;;;;;164.50;132.25;;;18.80;45.10;;;;;;4778185;55;21499;-34
2022/02/02 00:38:00;;;;;;;159.60;130.20;;;18.80;45.10;;;;;;4737978;59;21559;-35
2022/02/02 00:43:01;;;;;;;163.23;133.87;;;18.80;45.00;;;;;;4737772;59;21101;-33
2022/02/02 00:48:03;;;;;;;160.82;128.70;;;18.80;45.00;;;;;;4753915;55;21476;-37
2022/02/02 00:53:04;;;;;;;160.60;126.75;;;18.80;44.90;;;;;;4738110;59;21591;-34
2022/02/02 00:58:06;;;;;;;158.68;125.43;;;18.80;44.90;;;;;;4770093;55;21114;-36
2022/02/02 01:03:07;;;;;;;160.48;129.20;;;18.80;44.80;;;;;;4746018;55;21469;-37
2022/02/02 01:08:35;;;;;;;154.85;126.55;;;18.80;44.80;;;;;;4739579;55;21018;-34
2022/02/02 01:30:19;;;;;;;152.27;122.10;;;18.80;44.70;;;;;;4736768;59;21524;-37
2022/02/02 01:35:20;;;;;;;150.68;120.90;;;18.70;44.60;;;;;;4738315;59;21456;-32
2022/02/02 01:40:28;;;;;;;150.25;121.37;;;18.70;44.50;;;;;;4739396;55;20982;-36
2022/02/02 01:45:54;;;;;;;146.07;119.00;;;18.80;44.60;;;;;;4739869;55;21570;-35
2022/02/02 01:51:10;;;;;;;150.82;121.90;;;18.70;44.40;;;;;;4744680;55;21010;-38
2022/02/02 01:56:13;;;;;;;142.90;115.90;;;18.70;44.40;;;;;;4766997;55;21472;-37
2022/02/02 02:01:15;;;;;;;148.27;119.72;;;18.80;44.40;;;;;;4740898;55;21001;-39
2022/02/02 02:06:18;;;;;;;145.60;116.88;;;18.70;44.30;;;;;;4744707;55;20997;-34
2022/02/02 02:11:21;;;;;;;143.48;115.78;;;18.80;44.40;;;;;;4737423;55;21556;-36
2022/02/02 02:16:22;;;;;;;143.07;115.75;;;18.70;44.30;;;;;;4738870;59;21973;-35
2022/02/02 02:21:23;;;;;;;147.48;118.62;;;18.80;44.30;;;;;;4786639;55;21029;-35
2022/02/02 02:26:27;;;;;;;145.38;118.07;;;18.70;44.20;;;;;;4738135;59;21464;-34
2022/02/02 02:39:53;;;;;;;141.90;113.75;;;18.70;44.00;;;;;;4745627;55;21070;-37
2022/02/02 03:31:36;;;;;;;132.10;107.57;;;18.70;43.70;;;;;;4736937;55;21128;-36
2022/02/02 03:58:14;;;;;;;121.82;99.97;;;18.70;43.60;;;;;;4762407;55;21074;-35
2022/02/02 04:08:37;;;;;;;123.55;103.12;;;18.70;43.40;;;;;;4737785;59;21081;-35
2022/02/02 04:15:36;;;;;;;121.95;98.68;;;18.70;43.40;;;;;;4753162;55;21532;-38
2022/02/02 04:53:30;;;;;;;117.93;93.28;;;18.70;43.40;;;;;;4786995;55;21042;-37
2022/02/02 05:12:17;;;;;;;114.28;91.70;;;18.70;43.40;;;;;;4736780;55;21134;-38
2022/02/02 05:52:46;;;;;;;101.32;85.43;;;18.70;43.80;;;;;;4738479;55;21101;-35
2022/02/02 05:57:47;;;;;;;101.03;84.75;;;18.70;43.80;;;;;;4737766;59;21070;-38
2022/02/02 06:02:54;;;;;;;99.72;81.87;;;18.70;43.80;;;;;;4756543;55;21339;-37
2022/02/02 06:07:56;;;;;;;101.28;83.40;;;18.70;43.80;;;;;;4764187;55;21010;-38
2022/02/02 06:13:00;;;;;;;99.75;83.45;;;18.70;43.80;;;;;;4737669;59;21030;-36
2022/02/02 06:18:03;;;;;;;96.12;78.18;;;18.70;43.90;;;;;;4747580;55;21544;-39
2022/02/02 06:23:15;;;;;;;96.75;78.78;;;18.70;43.90;;;;;;4756735;55;22015;-35
2022/02/02 06:28:24;;;;;;;95.62;78.32;;;18.70;43.80;;;;;;4760617;55;21111;-39
2022/02/02 06:33:38;;;;;;;98.75;81.15;;;18.70;43.80;;;;;;4776888;55;21117;-37
2022/02/02 06:38:39;;;;;;;93.95;80.05;;;18.70;43.80;;;;;;4755457;55;21992;-37
2022/02/02 06:43:40;;;;;;;96.12;79.10;;;18.60;43.70;;;;;;4737718;59;21069;-30
2022/02/02 06:48:41;;;;;;;90.60;73.32;;;18.70;43.80;;;;;;4737844;59;21069;-33
2022/02/02 06:54:19;;;;;;;96.78;77.45;;;18.70;43.80;;;;;;4738251;59;21029;-36
2022/02/02 07:06:35;;;;;;;91.22;77.97;;;18.70;43.80;;;;;;4759715;55;21045;-36
2022/02/02 07:12:03;;;;;;;91.97;74.70;;;18.70;43.80;;;;;;4738911;55;21567;-36
2022/02/02 07:17:46;;;;;;;94.18;80.18;;;18.60;43.70;;;;;;4738675;59;21511;-39
2022/02/02 07:28:19;;;;;;;97.60;81.95;;;18.70;43.70;;;;;;4747375;55;21567;-35
2022/02/02 07:33:28;;;;;;;95.87;79.72;;;18.70;43.70;;;;;;4767271;55;22091;-36
2022/02/02 07:39:01;;;;;;;95.82;79.37;;;18.70;43.60;;;;;;4738104;59;21528;-38
2022/02/02 07:44:12;;;;;;;97.00;80.68;;;18.70;43.70;;;;;;4741782;55;21961;-36
2022/02/02 07:49:16;;;;;;;97.37;84.40;;;18.70;43.60;;;;;;4737055;59;21068;-34
2022/02/02 07:54:23;;;;;;;95.80;80.75;;;18.70;43.60;;;;;;4742173;55;21500;-37
2022/02/02 07:59:43;;;;;;;94.20;78.78;;;18.70;43.60;;;;;;4764299;55;21073;-38
2022/02/02 08:04:43;;;;;;;98.90;83.93;;;18.70;43.60;;;;;;4756508;55;21610;-35
2022/02/02 08:09:51;;;;;;;91.97;76.28;;;18.70;43.50;;;;;;4756455;55;21025;-30
2022/02/02 08:14:56;;;;;;;106.45;87.18;;;18.70;43.50;;;;;;4741261;55;21576;-38
2022/02/02 08:19:57;;;;;;;103.72;86.50;;;18.70;43.50;;;;;;4746538;55;21493;-37
2022/02/02 08:24:58;;;;;;;103.20;84.90;;;18.70;43.50;;;;;;4744504;55;21050;-36
2022/02/02 08:30:00;;;;;;;104.72;87.22;;;18.70;43.40;;;;;;4739015;55;21569;-37
2022/02/02 08:35:01;;;;;;;109.68;90.50;;;18.70;43.50;;;;;;4741020;55;21512;-38
2022/02/02 08:40:40;;;;;;;110.37;91.78;;;18.70;43.40;;;;;;4760533;55;21029;-35
2022/02/02 08:45:44;;;;;;;107.70;90.78;;;18.70;43.50;;;;;;4757926;55;21556;-38
2022/02/02 08:50:58;;;;;;;109.85;91.75;;;18.70;43.40;;;;;;4737745;55;21559;-37
2022/02/02 08:56:18;;;;;;;117.70;93.78;;;18.70;43.40;;;;;;4737752;59;21615;-36
2022/02/02 09:01:26;;;;;;;114.53;95.85;;;18.70;43.40;;;;;;4738048;59;21491;-34
2022/02/02 09:06:27;;;;;;;109.18;93.40;;;18.70;43.40;;;;;;4767788;55;21586;-39
2022/02/02 09:34:10;;;;;;;122.28;102.15;;;18.70;43.40;;;;;;4737689;55;21022;-35
2022/02/02 09:39:19;;;;;;;122.05;101.72;;;18.70;43.40;;;;;;4743909;55;21520;-37
2022/02/02 09:44:23;;;;;;;126.57;102.75;;;18.70;43.40;;;;;;4773885;55;22176;-36
2022/02/02 09:49:34;;;;;;;122.13;102.30;;;18.70;43.40;;;;;;4773298;55;21504;-38
2022/02/02 09:54:48;;;;;;;121.97;102.72;;;18.70;43.40;;;;;;4761307;55;21614;-37
2022/02/02 10:00:11;;;;;;;120.80;102.57;;;18.70;43.70;;;;;;4737142;55;21598;-37
2022/02/02 10:05:35;;;;;;;127.57;105.35;;;18.80;44.00;;;;;;4737380;59;21706;-35
2022/02/02 10:11:35;;;;;;;122.43;102.12;;;18.80;44.10;;;;;;4765365;55;21568;-38
2022/02/02 10:16:49;;;;;;;125.25;102.10;;;18.90;44.30;;;;;;4737755;59;21101;-30
2022/02/02 10:21:50;;;;;;;122.15;101.53;;;19.00;44.40;;;;;;4738239;59;21385;-37
2022/02/02 10:26:52;;;;;;;122.35;99.78;;;19.00;44.50;;;;;;4766042;55;21010;-35
2022/02/02 10:31:52;;;;;;;123.72;101.35;;;19.00;44.50;;;;;;4757687;55;21456;-33
2022/02/02 10:37:21;;;;;;;128.12;106.53;;;19.10;44.70;;;;;;4762923;55;21029;-35
2022/02/02 10:42:38;;;;;;;132.40;109.97;;;19.10;44.80;;;;;;4738338;59;21547;-38
2022/02/02 10:47:40;;;;;;;131.87;109.63;;;19.10;44.90;;;;;;4737000;59;21558;-32
2022/02/02 10:52:59;;;;;;;139.25;110.82;;;19.20;45.00;;;;;;4739140;59;21480;-35
2022/02/02 10:58:25;;;;;;;135.73;110.78;;;19.20;45.10;;;;;;4751921;55;21495;-36
2022/02/02 11:08:47;;;;;;;138.68;110.28;;;19.20;45.30;;;;;;4737369;55;21074;-33
2022/02/02 11:13:52;;;;;;;141.32;115.03;;;19.30;45.50;;;;;;4736707;59;21049;-35
2022/02/02 11:18:54;;;;;;;145.62;118.60;;;19.30;45.50;;;;;;4737797;59;21062;-38
2022/02/02 11:23:56;;;;;;;150.12;122.65;;;19.30;45.60;;;;;;4798227;55;21054;-36
2022/02/02 11:28:57;;;;;;;140.82;117.10;;;19.30;45.90;;;;;;4760622;55;22004;-32
2022/02/02 11:33:59;;;;;;;145.27;119.93;;;19.30;46.10;;;;;;4737757;56;21033;-31
2022/02/02 11:39:06;;;;;;;152.80;123.00;;;19.30;46.20;;;;;;4752946;55;21592;-35
2022/02/02 11:44:19;;;;;;;145.80;121.97;;;19.20;46.20;;;;;;4740649;55;21602;-35
2022/02/02 11:50:04;;;;;;;148.80;120.20;;;19.20;46.20;;;;;;4737349;59;21607;-35
2022/02/02 11:55:42;;;;;;;152.00;123.60;;;19.20;46.30;;;;;;4737885;57;21472;-45
2022/02/02 12:08:33;;;;;;;154.75;125.10;;;19.20;46.30;;;;;;4766332;55;22041;-33
2022/02/02 12:46:11;;;;;;;163.77;131.90;;;19.40;46.70;;;;;;4749356;55;21026;-35
2022/02/02 12:56:36;;;;;;;167.45;135.18;;;19.30;46.80;;;;;;4743111;55;22408;-37
2022/02/02 13:01:37;;;;;;;172.80;141.37;;;19.30;46.70;;;;;;4771474;55;21496;-33
2022/02/02 13:06:41;;;;;;;168.70;137.55;;;19.20;46.70;;;;;;4789255;55;21331;-39
2022/02/02 13:11:42;;;;;;;169.20;138.23;;;19.20;46.70;;;;;;4773533;55;21029;-34
2022/02/02 13:16:43;;;;;;;170.62;136.18;;;19.30;47.00;;;;;;4737865;59;21048;-34
2022/02/02 13:21:51;;;;;;;170.38;139.43;;;19.30;47.00;;;;;;4737115;59;21054;-43
2022/02/02 13:27:05;;;;;;;168.70;136.02;;;19.40;47.00;;;;;;4746146;55;21464;-46
2022/02/02 13:32:41;;;;;;;164.98;134.73;;;19.30;47.40;;;;;;4768019;55;21559;-36
2022/02/02 13:37:58;;;;;;;166.45;135.73;;;19.30;47.00;;;;;;4738128;59;21496;-37
2022/02/02 13:50:00;;;;;;;166.70;136.57;;;19.20;47.10;;;;;;4778194;55;21898;-36
2022/02/02 13:55:37;;;;;;;169.50;140.37;;;19.20;47.30;;;;;;4749363;55;21698;-35
2022/02/02 14:00:53;;;;;;;173.77;140.87;;;19.20;47.10;;;;;;4755917;55;21603;-37
2022/02/02 14:06:18;;;;;;;163.25;134.70;;;19.20;47.00;;;;;;4785353;55;21544;-37
2022/02/02 14:11:43;;;;;;;167.62;138.52;;;19.20;47.60;;;;;;4791081;55;21599;-36
2022/02/02 14:34:01;;;;;;;167.50;136.70;;;19.10;46.90;;;;;;4746378;55;21021;-35
2022/02/02 14:39:14;;;;;;;170.57;139.68;;;19.10;46.80;;;;;;4758081;55;21090;-37
2022/02/02 14:49:50;;;;;;;176.00;141.77;;;19.10;46.80;;;;;;4737320;59;21022;-37
2022/02/02 14:55:38;;;;;;;167.10;140.75;;;19.10;46.80;;;;;;4753572;55;21472;-34
2022/02/02 15:27:30;;;;;;;169.65;140.45;;;19.00;46.70;;;;;;4745645;55;21544;-36
2022/02/02 15:32:32;;;;;;;168.43;140.05;;;19.00;46.70;;;;;;4740706;55;21469;-38
2022/02/02 15:37:39;;;;;;;159.25;132.18;;;19.10;46.80;;;;;;4740528;55;22374;-36
2022/02/02 15:43:04;;;;;;;163.70;138.80;;;19.00;46.70;;;;;;4744516;55;21543;-36
2022/02/02 15:58:49;;;;;;;162.20;138.23;;;19.00;46.70;;;;;;4787000;55;21061;-37
2022/02/02 16:03:52;;;;;;;161.80;136.48;;;19.00;46.80;;;;;;4756474;55;21561;-38
2022/02/02 16:09:12;;;;;;;154.85;128.05;;;19.00;46.70;;;;;;4754012;55;21456;-35
2022/02/02 16:14:23;;;;;;;162.18;134.77;;;19.00;46.70;;;;;;4746234;55;21544;-37
2022/02/02 16:19:30;;;;;;;162.02;134.90;;;19.00;46.70;;;;;;4757977;55;21599;-36
2022/02/02 16:25:00;;;;;;;162.80;137.33;;;19.00;46.70;;;;;;4738925;55;21514;-37
2022/02/02 16:47:35;;;;;;;161.35;135.40;;;19.00;46.70;;;;;;4737201;59;21029;-38
2022/02/02 16:52:36;;;;;;;168.25;141.12;;;19.00;46.70;;;;;;4740961;55;21022;-37
2022/02/02 16:57:58;;;;;;;165.37;137.37;;;19.00;46.70;;;;;;4752189;55;21476;-36
2022/02/02 17:31:10;;;;;;;176.00;142.10;;;19.00;46.70;;;;;;4741162;55;21091;-36
2022/02/02 17:36:23;;;;;;;168.18;139.95;;;19.00;46.70;;;;;;4744829;55;21517;-29
2022/02/02 17:41:51;;;;;;;172.20;141.93;;;19.00;46.70;;;;;;4741185;55;22204;-38
2022/02/02 18:21:07;;;;;;;170.60;140.20;;;19.00;46.80;;;;;;4739513;55;21086;-35
2022/02/02 18:26:25;;;;;;;175.02;143.90;;;19.00;46.80;;;;;;4737992;59;21452;-37
2022/02/02 18:31:45;;;;;;;178.32;146.25;;;19.00;46.80;;;;;;4761887;55;21018;-38
2022/02/02 18:37:01;;;;;;;187.02;148.27;;;19.00;46.70;;;;;;4757695;55;21763;-32
2022/02/02 18:49:17;;;;;;;178.93;147.10;;;19.00;46.80;;;;;;4794159;55;21082;-37
2022/02/02 18:54:49;;;;;;;181.07;147.95;;;19.00;46.80;;;;;;4763459;55;21560;-38
2022/02/02 19:00:15;;;;;;;178.23;145.12;;;19.00;46.90;;;;;;4757542;55;21504;-32
2022/02/02 19:39:20;;;;;;;177.00;143.62;;;19.00;46.90;;;;;;4751827;55;20994;-38
2022/02/02 20:14:07;;;;;;;168.37;141.37;;;19.00;46.90;;;;;;4737126;59;21058;-32
2022/02/02 20:19:10;;;;;;;168.77;140.00;;;19.00;47.00;;;;;;4738085;56;21073;-38
2022/02/02 20:24:12;;;;;;;174.70;145.35;;;19.00;46.90;;;;;;4777246;55;22039;-32
2022/02/02 20:29:14;;;;;;;170.30;143.10;;;19.00;47.00;;;;;;4746223;55;21092;-35
2022/02/02 20:34:15;;;;;;;170.87;139.52;;;19.00;47.00;;;;;;4745913;55;22068;-34
2022/02/02 20:39:34;;;;;;;174.10;142.48;;;19.00;46.90;;;;;;4804674;55;21060;-34
2022/02/02 21:10:26;;;;;;;166.90;138.77;;;18.90;46.90;;;;;;4743047;55;21177;-36
2022/02/02 21:15:30;;;;;;;169.68;139.68;;;19.00;47.00;;;;;;4747984;55;21693;-38
2022/02/02 21:20:35;;;;;;;166.48;139.68;;;19.00;47.00;;;;;;4761689;55;21547;-37
2022/02/02 21:26:33;;;;;;;172.10;142.35;;;18.90;46.90;;;;;;4789645;55;21516;-35
2022/02/02 21:31:37;;;;;;;161.62;132.65;;;18.90;46.90;;;;;;4757767;55;21524;-33
2022/02/02 21:36:38;;;;;;;166.95;140.20;;;18.90;46.90;;;;;;4759316;55;21010;-36
2022/02/02 21:41:40;;;;;;;168.73;140.25;;;18.90;47.50;;;;;;4761059;55;21616;-37
2022/02/02 21:46:42;;;;;;;164.13;139.70;;;18.90;46.90;;;;;;4749104;55;21479;-34
2022/02/02 21:51:55;;;;;;;164.00;137.82;;;18.90;46.90;;;;;;4757379;55;21069;-35
2022/02/02 21:56:57;;;;;;;157.77;132.05;;;19.00;46.90;;;;;;4762946;55;21599;-37
2022/02/02 22:01:58;;;;;;;166.05;137.73;;;18.90;46.90;;;;;;4761520;55;21112;-33
2022/02/02 22:06:59;;;;;;;164.68;135.02;;;18.90;46.80;;;;;;4743046;55;21527;-34
2022/02/02 22:12:00;;;;;;;160.37;132.93;;;18.90;46.80;;;;;;4743192;55;21555;-34
2022/02/02 22:17:03;;;;;;;160.93;134.90;;;18.90;46.80;;;;;;4791997;55;21050;-37
2022/02/02 22:22:04;;;;;;;156.27;132.10;;;18.90;46.80;;;;;;4760469;55;21528;-33
2022/02/02 22:27:06;;;;;;;161.40;133.75;;;18.90;46.80;;;;;;4832178;55;21002;-35
2022/02/02 22:32:08;;;;;;;159.15;135.23;;;18.90;46.80;;;;;;4747426;55;21057;-32
2022/02/02 22:37:10;;;;;;;162.82;136.95;;;18.90;46.70;;;;;;4758512;55;21025;-36
2022/02/02 22:42:13;;;;;;;156.48;132.85;;;18.90;46.70;;;;;;4755502;55;21999;-35
2022/02/02 22:47:15;;;;;;;156.23;128.27;;;18.90;46.70;;;;;;4741590;55;21492;-36
2022/02/02 22:52:18;;;;;;;157.70;131.10;;;18.90;46.70;;;;;;4799159;55;21500;-34
2022/02/02 22:57:19;;;;;;;160.12;134.82;;;18.90;46.70;;;;;;4749313;55;21487;-36
2022/02/02 23:02:45;;;;;;;154.95;130.95;;;18.90;46.60;;;;;;4749229;55;21034;-35
2022/02/02 23:07:46;;;;;;;150.57;126.28;;;18.90;46.60;;;;;;4764670;55;22052;-35
2022/02/02 23:12:47;;;;;;;155.77;131.65;;;18.90;46.60;;;;;;4737103;59;21065;-30
2022/02/02 23:17:49;;;;;;;151.80;128.23;;;18.90;46.60;;;;;;4759457;55;21074;-36
2022/02/02 23:22:50;;;;;;;150.65;126.07;;;18.90;46.60;;;;;;4785525;55;21833;-35
2022/02/02 23:27:51;;;;;;;151.12;126.07;;;18.90;46.50;;;;;;4749555;55;21022;-31
2022/02/02 23:32:53;;;;;;;153.10;128.73;;;18.90;46.50;;;;;;4737857;55;21062;-35
2022/02/02 23:37:54;;;;;;;154.98;127.85;;;18.90;46.50;;;;;;4738400;59;21579;-33
2022/02/02 23:42:55;;;;;;;145.48;119.60;;;18.90;46.40;;;;;;4758591;55;21014;-32
2022/02/02 23:47:59;;;;;;;147.18;122.25;;;18.90;46.50;;;;;;4758152;55;21453;-33
2022/02/02 23:53:00;;;;;;;146.57;123.87;;;18.90;46.40;;;;;;4853856;55;21017;-37
2022/02/02 23:58:15;;;;;;;145.02;122.87;;;18.90;46.40;;;;;;4747113;55;21540;-35
